Time;durP1;ratioP1;P1;durP2;ratioP2;P2;SDS_P1;SDS_P2;PMS_P1;PMS_P2;Temp;Humidity;BMP_temperature;BMP_pressure;BME280_temperature;BME280_humidity;BME280_pressure;Samples;Min_cycle;Max_cycle;Signal;HPM_P1;HPM_P2
2023/06/10 00:01:12;;;;;;;10.65;5.35;;;23.00;99.90;;;;;;4075285;29;20203;-93
2023/06/10 00:03:14;;;;;;;9.07;5.63;;;22.90;99.90;;;;;;4077200;29;20164;-93
2023/06/10 00:05:16;;;;;;;9.60;5.25;;;22.80;99.90;;;;;;4081135;29;20279;-93
2023/06/10 00:07:29;;;;;;;5.78;4.97;;;22.80;99.90;;;;;;4096422;28;20285;-93
2023/06/10 00:09:30;;;;;;;7.38;5.30;;;22.80;99.90;;;;;;4079843;29;20171;-92
2023/06/10 00:11:48;;;;;;;13.27;5.25;;;22.80;99.90;;;;;;4091044;28;20670;-93
2023/06/10 00:13:52;;;;;;;8.35;5.40;;;22.80;99.90;;;;;;4089959;28;20658;-92
2023/06/10 00:15:56;;;;;;;8.27;5.18;;;22.80;99.90;;;;;;4089680;29;20175;-92
2023/06/10 00:18:02;;;;;;;12.48;5.40;;;22.90;99.90;;;;;;4095246;28;20227;-92
2023/06/10 00:20:08;;;;;;;10.43;5.78;;;22.80;99.90;;;;;;4093354;28;20222;-92
2023/06/10 00:22:12;;;;;;;9.80;5.43;;;22.70;99.90;;;;;;4076188;29;20223;-92
2023/06/10 00:24:14;;;;;;;10.65;5.63;;;22.70;99.90;;;;;;4076109;29;20163;-93
2023/06/10 00:26:25;;;;;;;9.73;5.78;;;22.60;99.90;;;;;;4074554;29;20200;-93
2023/06/10 00:28:26;;;;;;;12.27;6.00;;;22.50;99.90;;;;;;4074040;29;20581;-94
2023/06/10 00:30:27;;;;;;;10.32;5.88;;;22.40;99.90;;;;;;4093985;28;20188;-92
2023/06/10 00:32:34;;;;;;;12.00;6.15;;;22.30;99.90;;;;;;4078353;29;20245;-93
2023/06/10 00:34:42;;;;;;;10.32;5.50;;;22.10;99.90;;;;;;4078345;29;20168;-92
2023/06/10 00:37:04;;;;;;;9.63;5.72;;;22.10;99.90;;;;;;4091967;28;20206;-94
2023/06/10 00:39:05;;;;;;;9.55;6.05;;;22.10;99.90;;;;;;4090621;28;20171;-92
2023/06/10 00:41:07;;;;;;;11.23;6.00;;;22.00;99.90;;;;;;4090247;28;20167;-94
2023/06/10 00:43:10;;;;;;;7.78;5.60;;;22.00;99.90;;;;;;4091290;28;20191;-93
2023/06/10 00:45:11;;;;;;;11.15;5.82;;;21.90;99.90;;;;;;4099435;23;20309;-90
2023/06/10 00:47:12;;;;;;;9.98;6.00;;;21.90;99.90;;;;;;4083288;29;20208;-91
2023/06/10 00:49:13;;;;;;;10.30;5.78;;;21.90;99.90;;;;;;4083154;29;20178;-90
2023/06/10 00:51:15;;;;;;;11.35;5.75;;;21.90;99.90;;;;;;4083437;29;20258;-89
2023/06/10 00:53:17;;;;;;;10.93;6.18;;;22.00;99.90;;;;;;4083098;29;20676;-90
2023/06/10 00:55:18;;;;;;;13.40;6.35;;;21.90;99.90;;;;;;4098858;28;20241;-91
2023/06/10 00:57:20;;;;;;;10.48;5.70;;;21.90;99.90;;;;;;4083284;29;20211;-92
2023/06/10 00:59:22;;;;;;;10.60;6.57;;;22.00;99.90;;;;;;4083332;29;20243;-91
2023/06/10 01:01:23;;;;;;;8.75;5.45;;;22.00;99.90;;;;;;4083373;29;20163;-92
2023/06/10 01:03:24;;;;;;;12.60;6.43;;;22.00;99.90;;;;;;4083217;29;20211;-91
2023/06/10 01:05:26;;;;;;;10.55;6.00;;;21.90;99.90;;;;;;4083149;29;20183;-91
2023/06/10 01:08:15;;;;;;;11.05;6.28;;;21.90;99.90;;;;;;4082985;29;20255;-91
2023/06/10 01:10:32;;;;;;;12.00;6.05;;;21.90;99.90;;;;;;4098737;28;20222;-91
2023/06/10 01:12:48;;;;;;;9.75;5.80;;;21.90;99.90;;;;;;4082928;29;20175;-91
2023/06/10 01:14:50;;;;;;;11.25;6.07;;;21.90;99.90;;;;;;4082996;29;20270;-90
2023/06/10 01:16:53;;;;;;;7.93;6.07;;;21.90;99.90;;;;;;4082533;29;20200;-91
2023/06/10 01:18:54;;;;;;;14.40;6.07;;;21.80;99.90;;;;;;4083091;29;20303;-90
2023/06/10 01:20:56;;;;;;;8.10;6.25;;;21.80;99.90;;;;;;4083357;29;20182;-91
2023/06/10 01:23:02;;;;;;;15.45;6.68;;;21.70;99.90;;;;;;4082999;29;20215;-91
2023/06/10 01:25:04;;;;;;;9.45;6.22;;;21.70;99.90;;;;;;4083634;29;20171;-91
2023/06/10 01:27:11;;;;;;;7.95;6.03;;;21.70;99.90;;;;;;4083007;29;20206;-92
2023/06/10 01:29:28;;;;;;;9.40;6.15;;;21.60;99.90;;;;;;4082892;29;20230;-91
2023/06/10 01:31:49;;;;;;;9.63;5.60;;;21.60;99.90;;;;;;4082945;29;20655;-90
2023/06/10 01:33:52;;;;;;;11.43;6.97;;;21.60;99.90;;;;;;4082947;29;20227;-91
2023/06/10 01:35:55;;;;;;;8.73;5.88;;;21.50;99.90;;;;;;4083121;29;20224;-91
2023/06/10 01:37:58;;;;;;;10.95;6.65;;;21.40;99.90;;;;;;4098828;28;20245;-91
2023/06/10 01:40:05;;;;;;;9.77;6.30;;;21.30;99.90;;;;;;4099131;28;20171;-92
2023/06/10 01:42:06;;;;;;;11.95;6.40;;;21.20;99.90;;;;;;4083097;29;20172;-91
2023/06/10 01:44:07;;;;;;;9.45;7.07;;;21.10;99.90;;;;;;4098556;28;20181;-90
2023/06/10 01:46:08;;;;;;;17.13;6.60;;;21.10;99.90;;;;;;4082955;29;20203;-93
2023/06/10 01:48:09;;;;;;;16.42;6.10;;;21.10;99.90;;;;;;4098811;28;20175;-90
2023/06/10 01:50:10;;;;;;;9.88;5.95;;;21.10;99.90;;;;;;4099325;28;20201;-90
2023/06/10 01:52:11;;;;;;;13.35;6.20;;;21.10;99.90;;;;;;4101454;28;20250;-91
2023/06/10 01:54:11;;;;;;;13.73;6.50;;;21.10;99.90;;;;;;4085824;29;20184;-90
2023/06/10 01:56:19;;;;;;;13.77;6.53;;;21.10;99.90;;;;;;4101692;28;20211;-91
2023/06/10 01:58:20;;;;;;;12.25;6.20;;;21.10;99.90;;;;;;4085326;29;20210;-92
2023/06/10 02:00:21;;;;;;;9.05;6.53;;;21.10;99.90;;;;;;4101312;28;20183;-91
2023/06/10 02:02:22;;;;;;;11.18;6.72;;;21.10;99.90;;;;;;4085895;29;20175;-90
2023/06/10 02:04:23;;;;;;;13.05;6.63;;;21.10;99.90;;;;;;4085665;29;20727;-91
2023/06/10 02:06:23;;;;;;;12.88;6.65;;;21.20;99.90;;;;;;4085419;29;20191;-91
2023/06/10 02:08:24;;;;;;;13.68;6.60;;;21.20;99.90;;;;;;4085335;29;20184;-90
2023/06/10 02:10:25;;;;;;;12.80;6.35;;;21.20;99.90;;;;;;4085379;29;20742;-90
2023/06/10 02:12:27;;;;;;;14.27;6.15;;;21.20;99.90;;;;;;4101414;28;20203;-91
2023/06/10 02:14:28;;;;;;;10.18;6.80;;;21.20;99.90;;;;;;4085685;29;20222;-92
2023/06/10 02:16:28;;;;;;;10.77;6.80;;;21.20;99.90;;;;;;4085365;29;20195;-91
2023/06/10 02:18:29;;;;;;;8.45;5.95;;;21.20;99.90;;;;;;4101014;28;20163;-92
2023/06/10 02:20:30;;;;;;;14.00;6.65;;;21.20;99.90;;;;;;4101249;28;20719;-90
2023/06/10 02:22:31;;;;;;;9.88;6.13;;;21.20;99.90;;;;;;4085408;29;20188;-90
2023/06/10 02:24:32;;;;;;;12.38;6.55;;;21.20;99.90;;;;;;4100840;28;20189;-91
2023/06/10 02:26:32;;;;;;;19.02;7.60;;;21.20;99.90;;;;;;4101081;28;20198;-91
2023/06/10 02:28:34;;;;;;;13.52;7.03;;;21.20;99.90;;;;;;4101394;28;20175;-91
2023/06/10 02:30:38;;;;;;;15.10;6.82;;;21.30;99.90;;;;;;4085505;29;20172;-91
2023/06/10 02:32:39;;;;;;;11.35;5.93;;;21.30;99.90;;;;;;4085204;29;20262;-91
2023/06/10 02:34:39;;;;;;;10.07;6.75;;;21.30;99.90;;;;;;4084969;29;20176;-91
2023/06/10 02:36:41;;;;;;;14.23;6.68;;;21.40;99.90;;;;;;4085096;29;20203;-92
2023/06/10 02:38:42;;;;;;;14.07;7.30;;;21.40;99.90;;;;;;4085239;29;20175;-91
2023/06/10 02:40:44;;;;;;;11.07;6.60;;;21.40;99.90;;;;;;4100935;28;20171;-91
2023/06/10 02:42:46;;;;;;;14.43;6.57;;;21.40;99.90;;;;;;4084945;29;20191;-90
2023/06/10 02:44:47;;;;;;;11.50;6.13;;;21.40;99.90;;;;;;4101138;28;20347;-91
2023/06/10 02:46:54;;;;;;;13.25;7.22;;;21.40;99.90;;;;;;4085854;29;20200;-91
2023/06/10 02:48:55;;;;;;;15.18;6.80;;;21.40;99.90;;;;;;4100483;28;20648;-91
2023/06/10 02:50:58;;;;;;;11.98;7.22;;;21.30;99.90;;;;;;4085032;29;20648;-91
2023/06/10 02:53:08;;;;;;;13.88;6.55;;;21.20;99.90;;;;;;4100717;28;20276;-91
2023/06/10 02:55:12;;;;;;;9.25;6.53;;;21.20;99.90;;;;;;4100675;28;20239;-91
2023/06/10 02:57:15;;;;;;;10.73;6.75;;;21.10;99.90;;;;;;4084981;29;20207;-91
2023/06/10 02:59:16;;;;;;;11.60;7.00;;;21.00;99.90;;;;;;4100687;28;20182;-91
2023/06/10 03:01:18;;;;;;;10.90;7.18;;;20.90;99.90;;;;;;4100505;28;20167;-91
2023/06/10 03:03:27;;;;;;;14.88;7.40;;;20.90;99.90;;;;;;4101205;28;20175;-91
2023/06/10 03:05:35;;;;;;;10.57;6.70;;;20.80;99.90;;;;;;4085387;28;20503;-92
2023/06/10 03:07:39;;;;;;;10.88;7.13;;;20.80;99.90;;;;;;4101043;28;20226;-91
2023/06/10 03:09:39;;;;;;;8.00;6.85;;;20.70;99.90;;;;;;4084684;29;20227;-91
2023/06/10 03:11:43;;;;;;;11.93;7.50;;;20.70;99.90;;;;;;4084962;29;20195;-91
2023/06/10 03:13:44;;;;;;;10.68;7.22;;;20.60;99.90;;;;;;4084497;29;20175;-93
2023/06/10 03:15:48;;;;;;;14.63;7.03;;;20.60;99.90;;;;;;4100531;28;20727;-94
2023/06/10 03:17:52;;;;;;;14.20;7.00;;;20.50;99.90;;;;;;4099981;28;20713;-94
2023/06/10 03:19:53;;;;;;;12.15;7.05;;;20.50;99.90;;;;;;4084438;29;20163;-94
2023/06/10 03:22:07;;;;;;;10.35;7.28;;;20.50;99.90;;;;;;4084393;29;20223;-92
2023/06/10 03:24:07;;;;;;;13.00;7.13;;;20.50;99.90;;;;;;4099935;28;20175;-93
2023/06/10 03:26:11;;;;;;;11.23;6.97;;;20.50;99.90;;;;;;4100210;28;20600;-93
2023/06/10 03:28:15;;;;;;;10.10;7.63;;;20.50;99.90;;;;;;4084715;29;20183;-93
2023/06/10 03:30:17;;;;;;;13.45;7.30;;;20.50;99.90;;;;;;4084140;29;20182;-93
2023/06/10 03:32:20;;;;;;;15.80;7.55;;;20.40;99.90;;;;;;4084633;29;20172;-94
2023/06/10 03:34:21;;;;;;;11.27;7.32;;;20.40;99.90;;;;;;4100027;28;20191;-92
2023/06/10 03:36:22;;;;;;;10.13;7.05;;;20.30;99.90;;;;;;4099927;28;20190;-93
2023/06/10 03:38:23;;;;;;;13.65;7.78;;;20.30;99.90;;;;;;4084159;29;20223;-93
2023/06/10 03:40:24;;;;;;;12.38;7.55;;;20.30;99.90;;;;;;4099984;28;20174;-94
2023/06/10 03:42:25;;;;;;;15.88;8.05;;;20.30;99.90;;;;;;4084596;29;20237;-90
2023/06/10 03:44:26;;;;;;;13.57;7.80;;;20.20;99.90;;;;;;4084210;29;20186;-90
2023/06/10 03:46:27;;;;;;;14.73;7.53;;;20.20;99.90;;;;;;4084147;29;20211;-90
2023/06/10 03:48:27;;;;;;;11.55;7.55;;;20.20;99.90;;;;;;4099997;28;20648;-91
2023/06/10 03:50:28;;;;;;;10.48;8.15;;;20.20;99.90;;;;;;4084178;29;20190;-90
2023/06/10 03:52:29;;;;;;;11.65;7.82;;;20.10;99.90;;;;;;4083700;29;20168;-92
2023/06/10 03:54:31;;;;;;;12.48;7.80;;;20.10;99.90;;;;;;4083835;29;20180;-91
2023/06/10 03:56:32;;;;;;;12.32;7.78;;;20.10;99.90;;;;;;4083439;29;20206;-90
2023/06/10 03:58:33;;;;;;;14.85;7.55;;;20.10;99.90;;;;;;4099696;28;20187;-90
2023/06/10 04:00:41;;;;;;;12.90;7.75;;;20.10;99.90;;;;;;4099889;28;20220;-90
2023/06/10 04:02:45;;;;;;;10.13;7.97;;;20.10;99.90;;;;;;4099731;28;20728;-90
2023/06/10 04:04:50;;;;;;;17.42;8.38;;;20.10;99.90;;;;;;4099538;28;20687;-91
2023/06/10 04:06:51;;;;;;;15.45;7.43;;;20.10;99.90;;;;;;4083226;29;20199;-91
2023/06/10 04:08:53;;;;;;;11.15;8.18;;;20.10;99.90;;;;;;4083747;29;20172;-91
2023/06/10 04:10:54;;;;;;;10.05;7.38;;;20.10;99.90;;;;;;4083584;29;20203;-90
2023/06/10 04:12:55;;;;;;;13.20;8.15;;;20.10;99.90;;;;;;4083329;29;20175;-91
2023/06/10 04:14:59;;;;;;;15.48;7.43;;;20.10;99.90;;;;;;4082972;29;20208;-91
2023/06/10 04:17:00;;;;;;;15.02;7.47;;;20.10;99.90;;;;;;4083604;29;20310;-90
2023/06/10 04:19:01;;;;;;;13.18;7.97;;;20.10;99.90;;;;;;4099145;28;20178;-91
2023/06/10 04:21:02;;;;;;;16.85;8.48;;;20.00;99.90;;;;;;4083545;29;20247;-90
2023/06/10 04:23:05;;;;;;;12.75;8.25;;;20.00;99.90;;;;;;4083793;29;20584;-91
2023/06/10 04:25:07;;;;;;;9.85;7.47;;;20.00;99.90;;;;;;4083767;29;20175;-90
2023/06/10 04:27:09;;;;;;;15.77;8.07;;;20.00;99.90;;;;;;4083806;29;20240;-91
2023/06/10 04:29:09;;;;;;;14.10;8.52;;;20.00;99.90;;;;;;4083538;29;20266;-91
2023/06/10 04:31:10;;;;;;;11.45;8.27;;;20.00;99.90;;;;;;4083671;29;20178;-91
2023/06/10 04:33:12;;;;;;;13.30;8.52;;;19.90;99.90;;;;;;4083656;29;20180;-91
2023/06/10 04:35:15;;;;;;;20.88;8.95;;;19.90;99.90;;;;;;4083593;29;20179;-91
2023/06/10 04:37:16;;;;;;;10.15;7.90;;;19.90;99.90;;;;;;4083122;29;20239;-91
2023/06/10 04:39:17;;;;;;;11.93;8.48;;;19.90;99.90;;;;;;4083429;29;20183;-90
2023/06/10 04:41:18;;;;;;;12.45;8.77;;;19.90;99.90;;;;;;4083587;29;20182;-91
2023/06/10 04:43:19;;;;;;;14.63;8.77;;;19.80;99.90;;;;;;4083682;29;20179;-90
2023/06/10 04:45:20;;;;;;;18.58;8.50;;;19.70;99.90;;;;;;4083547;29;20187;-92
2023/06/10 04:47:21;;;;;;;15.13;8.38;;;19.70;99.90;;;;;;4083491;29;20191;-91
2023/06/10 04:49:22;;;;;;;20.55;8.60;;;19.60;99.90;;;;;;4083239;29;20290;-92
2023/06/10 04:51:23;;;;;;;12.88;9.18;;;19.60;99.90;;;;;;4083737;29;20656;-91
2023/06/10 04:53:24;;;;;;;11.35;8.40;;;19.60;99.90;;;;;;4083219;29;20271;-91
2023/06/10 04:55:25;;;;;;;13.07;9.30;;;19.60;99.90;;;;;;4115258;28;20651;-92
2023/06/10 04:57:26;;;;;;;15.27;8.73;;;19.60;99.90;;;;;;4083068;29;20695;-91
2023/06/10 04:59:26;;;;;;;14.50;9.45;;;19.70;99.90;;;;;;4099184;28;20194;-92
2023/06/10 05:01:27;;;;;;;17.13;9.00;;;19.70;99.90;;;;;;4083223;29;20214;-92
2023/06/10 05:03:29;;;;;;;17.88;8.88;;;19.70;99.90;;;;;;4082945;29;20188;-93
2023/06/10 05:05:30;;;;;;;13.43;9.07;;;19.80;99.90;;;;;;4083076;29;20175;-91
2023/06/10 05:07:30;;;;;;;14.50;9.25;;;19.90;99.90;;;;;;4083612;29;20206;-93
2023/06/10 05:09:32;;;;;;;14.45;8.38;;;20.00;99.90;;;;;;4083939;29;20179;-93
2023/06/10 05:11:33;;;;;;;12.00;9.15;;;20.10;99.90;;;;;;4083898;29;20274;-92
2023/06/10 05:13:34;;;;;;;18.90;8.10;;;20.20;99.90;;;;;;4084073;29;20541;-93
2023/06/10 05:15:34;;;;;;;20.23;8.63;;;20.30;99.90;;;;;;4100039;28;20710;-93
2023/06/10 05:17:35;;;;;;;18.08;7.80;;;20.40;99.90;;;;;;4083920;29;20628;-93
2023/06/10 05:19:37;;;;;;;14.82;8.18;;;20.50;99.90;;;;;;4099688;28;20683;-93
2023/06/10 05:21:38;;;;;;;15.20;8.50;;;20.70;99.90;;;;;;4084070;29;20212;-92
2023/06/10 05:23:38;;;;;;;12.27;8.10;;;21.00;99.90;;;;;;4099462;28;20231;-93
2023/06/10 05:25:39;;;;;;;10.77;8.00;;;21.00;99.90;;;;;;4101134;28;20627;-92
2023/06/10 05:27:41;;;;;;;13.32;8.10;;;21.20;99.90;;;;;;4103000;28;20277;-92
2023/06/10 05:29:42;;;;;;;17.33;8.25;;;21.30;99.90;;;;;;4102868;28;20856;-94
2023/06/10 05:31:43;;;;;;;14.88;8.13;;;21.30;99.90;;;;;;4102581;28;20183;-92
2023/06/10 05:33:44;;;;;;;12.15;8.18;;;21.40;99.90;;;;;;4102642;28;20513;-93
2023/06/10 05:35:45;;;;;;;16.45;8.27;;;21.40;99.90;;;;;;4102619;28;20178;-92
2023/06/10 05:37:45;;;;;;;12.32;8.45;;;21.40;99.90;;;;;;4102477;28;20215;-92
2023/06/10 05:39:46;;;;;;;12.93;8.13;;;21.60;99.90;;;;;;4102686;28;20187;-92
2023/06/10 05:41:47;;;;;;;14.32;8.55;;;21.80;99.90;;;;;;4086605;29;20238;-93
2023/06/10 05:43:48;;;;;;;11.35;8.50;;;21.90;99.90;;;;;;4102447;28;20179;-91
2023/06/10 05:45:49;;;;;;;11.00;7.50;;;21.90;99.90;;;;;;4102335;28;20203;-93
2023/06/10 05:47:49;;;;;;;13.65;7.78;;;22.00;99.90;;;;;;4102226;28;20277;-93
2023/06/10 05:49:51;;;;;;;16.05;8.95;;;22.00;99.90;;;;;;4102236;28;20271;-92
2023/06/10 05:51:52;;;;;;;11.82;8.15;;;22.00;99.90;;;;;;4086549;29;20227;-92
2023/06/10 05:53:53;;;;;;;9.10;7.85;;;22.00;99.90;;;;;;4102394;28;20178;-93
2023/06/10 05:55:57;;;;;;;13.80;7.95;;;21.90;99.90;;;;;;4102588;28;20281;-93
2023/06/10 05:58:01;;;;;;;16.33;7.97;;;21.80;99.90;;;;;;4102545;28;20310;-92
2023/06/10 06:00:02;;;;;;;14.88;8.13;;;21.90;99.90;;;;;;4086586;29;20179;-93
2023/06/10 06:02:03;;;;;;;16.08;8.20;;;21.90;99.90;;;;;;4102629;28;20270;-94
2023/06/10 06:04:04;;;;;;;10.50;7.72;;;21.80;99.90;;;;;;4086285;29;20194;-92
2023/06/10 06:06:05;;;;;;;13.75;7.78;;;21.90;99.90;;;;;;4086423;29;20558;-92
2023/06/10 06:08:07;;;;;;;14.43;7.72;;;22.00;99.90;;;;;;4086508;29;20179;-93
2023/06/10 06:10:08;;;;;;;14.68;7.72;;;22.10;99.90;;;;;;4086598;29;20633;-93
2023/06/10 06:12:10;;;;;;;11.80;7.63;;;22.10;99.90;;;;;;4086330;29;20183;-92
2023/06/10 06:14:11;;;;;;;11.10;7.55;;;22.30;99.90;;;;;;4086296;29;20625;-93
2023/06/10 06:16:12;;;;;;;13.85;8.15;;;22.50;99.90;;;;;;4102042;28;20229;-92
2023/06/10 06:18:13;;;;;;;12.45;7.60;;;22.40;99.90;;;;;;4102006;28;20678;-93
2023/06/10 06:20:13;;;;;;;13.38;7.93;;;22.70;99.90;;;;;;4086118;29;20653;-93
2023/06/10 06:22:14;;;;;;;11.95;8.00;;;22.80;99.90;;;;;;4086205;29;20315;-93
2023/06/10 06:24:16;;;;;;;15.15;7.35;;;22.80;99.90;;;;;;4086010;29;20226;-93
2023/06/10 06:26:16;;;;;;;10.00;7.40;;;22.90;99.90;;;;;;4086131;29;20243;-92
2023/06/10 06:28:18;;;;;;;13.95;7.97;;;22.90;99.90;;;;;;4086245;29;20625;-92
2023/06/10 06:30:19;;;;;;;16.55;7.35;;;23.10;99.90;;;;;;4085830;29;20199;-93
2023/06/10 06:32:22;;;;;;;15.57;7.82;;;23.10;99.90;;;;;;4085945;29;20578;-92
2023/06/10 06:34:23;;;;;;;10.68;7.75;;;23.20;99.90;;;;;;4101691;28;20182;-93
2023/06/10 06:36:24;;;;;;;11.40;7.57;;;23.20;99.90;;;;;;4101287;28;20679;-92
2023/06/10 06:38:24;;;;;;;9.35;6.85;;;23.30;99.90;;;;;;4101172;28;20656;-93
2023/06/10 06:40:26;;;;;;;10.15;6.95;;;23.40;99.90;;;;;;4101789;28;20182;-93
2023/06/10 06:42:27;;;;;;;18.92;7.28;;;23.50;99.90;;;;;;4085609;29;20183;-94
2023/06/10 06:44:46;;;;;;;15.57;7.68;;;23.50;99.90;;;;;;4102282;28;20182;-92
2023/06/10 06:46:46;;;;;;;16.83;7.07;;;23.60;99.90;;;;;;4086001;29;20191;-95
2023/06/10 06:48:47;;;;;;;10.48;6.38;;;23.60;99.90;;;;;;4101666;28;20206;-92
2023/06/10 06:50:48;;;;;;;12.85;6.10;;;23.70;99.90;;;;;;4101639;28;20198;-94
2023/06/10 06:52:49;;;;;;;12.32;6.45;;;23.90;99.90;;;;;;4085786;29;20172;-92
2023/06/10 06:54:49;;;;;;;12.60;6.68;;;24.00;99.90;;;;;;4085508;29;20179;-94
2023/06/10 06:56:50;;;;;;;14.50;6.78;;;24.10;99.90;;;;;;4085378;29;20630;-92
2023/06/10 06:58:51;;;;;;;17.10;6.93;;;24.20;99.90;;;;;;4085886;29;20187;-94
2023/06/10 07:00:52;;;;;;;11.48;6.53;;;24.40;99.90;;;;;;4085736;29;20179;-92
2023/06/10 07:02:54;;;;;;;14.13;6.43;;;24.30;99.90;;;;;;4101566;28;20175;-92
2023/06/10 07:04:55;;;;;;;11.75;5.97;;;24.40;99.90;;;;;;4085795;29;20270;-91
2023/06/10 07:06:56;;;;;;;9.70;5.95;;;24.50;99.90;;;;;;4085399;29;20243;-93
2023/06/10 07:08:57;;;;;;;8.65;6.13;;;24.70;99.90;;;;;;4085558;29;20176;-92
2023/06/10 07:10:58;;;;;;;11.35;6.03;;;24.90;99.90;;;;;;4101660;28;20167;-90
2023/06/10 07:12:58;;;;;;;16.75;6.70;;;25.10;99.90;;;;;;4101414;28;20187;-91
2023/06/10 07:14:59;;;;;;;11.77;6.38;;;26.00;99.90;;;;;;4101295;28;20175;-93
2023/06/10 07:17:00;;;;;;;13.50;6.28;;;27.50;99.90;;;;;;4085203;29;20663;-93
2023/06/10 07:19:01;;;;;;;14.55;6.05;;;28.60;99.90;;;;;;4101183;28;20207;-93
2023/06/10 07:21:01;;;;;;;14.00;6.15;;;29.40;99.90;;;;;;4085418;29;20649;-93
2023/06/10 07:23:02;;;;;;;10.52;6.15;;;30.20;99.90;;;;;;4100964;28;20175;-92
2023/06/10 07:25:03;;;;;;;10.48;6.55;;;30.80;99.90;;;;;;4100864;28;20175;-93
2023/06/10 07:27:05;;;;;;;8.80;5.50;;;31.20;99.90;;;;;;4085071;29;20195;-92
2023/06/10 07:29:06;;;;;;;11.48;5.80;;;31.40;99.90;;;;;;4085257;29;20191;-95
2023/06/10 07:31:07;;;;;;;7.35;5.35;;;31.80;99.90;;;;;;4085011;29;20168;-95
2023/06/10 07:33:10;;;;;;;9.60;6.63;;;31.80;99.90;;;;;;4084984;29;20190;-93
2023/06/10 07:35:11;;;;;;;10.80;5.45;;;31.70;99.90;;;;;;4100827;28;20163;-92
2023/06/10 07:37:12;;;;;;;9.88;5.82;;;32.00;99.90;;;;;;4084935;29;20227;-92
2023/06/10 07:39:12;;;;;;;8.73;5.78;;;31.60;99.90;;;;;;4085013;29;20283;-94
2023/06/10 07:41:14;;;;;;;8.52;5.57;;;32.30;99.90;;;;;;4100810;28;20242;-92
2023/06/10 07:43:14;;;;;;;12.57;5.47;;;32.90;99.90;;;;;;4085109;29;20178;-92
2023/06/10 07:45:15;;;;;;;12.63;5.30;;;33.50;99.90;;;;;;4084898;29;20188;-93
2023/06/10 07:47:16;;;;;;;9.98;5.47;;;33.90;99.90;;;;;;4084959;29;20195;-93
2023/06/10 07:49:17;;;;;;;9.13;5.20;;;33.90;99.90;;;;;;4100547;28;20534;-95
2023/06/10 07:51:17;;;;;;;6.20;4.80;;;32.90;99.90;;;;;;4100910;28;20171;-94
2023/06/10 07:53:18;;;;;;;10.75;5.30;;;33.40;99.90;;;;;;4100575;28;20183;-93
2023/06/10 07:55:19;;;;;;;8.95;5.00;;;33.40;99.90;;;;;;4100922;28;20218;-92
2023/06/10 07:57:20;;;;;;;9.55;5.30;;;33.60;99.90;;;;;;4084836;29;20317;-92
2023/06/10 07:59:20;;;;;;;8.38;5.45;;;33.40;99.90;;;;;;4100583;28;20186;-94
2023/06/10 08:01:23;;;;;;;8.98;5.28;;;32.80;99.90;;;;;;4100574;28;20347;-94
2023/06/10 08:03:24;;;;;;;9.90;4.80;;;33.30;99.90;;;;;;4084666;29;20266;-92
2023/06/10 08:05:24;;;;;;;9.77;5.40;;;32.60;99.90;;;;;;4100641;28;20178;-93
2023/06/10 08:07:25;;;;;;;10.40;5.45;;;32.50;99.90;;;;;;4084699;29;20191;-94
2023/06/10 08:09:26;;;;;;;12.75;5.10;;;33.20;99.90;;;;;;4084929;29;20548;-93
2023/06/10 08:11:29;;;;;;;8.95;5.15;;;33.40;99.90;;;;;;4085249;29;20175;-95
2023/06/10 08:13:30;;;;;;;8.95;5.15;;;33.60;99.90;;;;;;4084775;29;20219;-94
2023/06/10 08:15:31;;;;;;;5.93;4.80;;;33.60;99.90;;;;;;4100620;28;20162;-95
2023/06/10 08:17:32;;;;;;;9.38;4.95;;;33.50;99.90;;;;;;4084562;29;20214;-94
2023/06/10 08:19:32;;;;;;;7.20;5.10;;;33.70;99.90;;;;;;4100575;28;20170;-94
2023/06/10 08:21:33;;;;;;;8.60;5.45;;;34.40;99.90;;;;;;4084500;29;20206;-95
2023/06/10 08:23:34;;;;;;;6.93;5.07;;;35.00;99.90;;;;;;4100416;28;20174;-94
2023/06/10 08:25:35;;;;;;;6.00;4.85;;;35.30;99.90;;;;;;4084650;29;20186;-94
2023/06/10 08:27:35;;;;;;;7.32;5.28;;;34.90;99.90;;;;;;4100881;28;20190;-94
2023/06/10 08:29:36;;;;;;;7.53;5.13;;;34.80;99.90;;;;;;4085921;29;20198;-93
2023/06/10 08:31:37;;;;;;;6.90;5.18;;;35.40;99.90;;;;;;4100740;28;20532;-93
2023/06/10 08:33:38;;;;;;;8.10;4.78;;;35.60;99.90;;;;;;4084347;29;20185;-96
2023/06/10 08:35:38;;;;;;;7.60;4.60;;;35.30;99.90;;;;;;4084871;29;20167;-95
2023/06/10 08:37:39;;;;;;;7.60;4.47;;;35.50;99.90;;;;;;4085228;29;20214;-93
2023/06/10 08:39:40;;;;;;;8.45;4.72;;;35.70;99.90;;;;;;4084230;29;20167;-93
2023/06/10 08:41:45;;;;;;;10.10;4.63;;;35.20;99.90;;;;;;4084436;29;20711;-95
2023/06/10 08:43:53;;;;;;;8.77;4.53;;;34.50;99.90;;;;;;4100203;28;20257;-94
2023/06/10 08:46:01;;;;;;;8.68;4.88;;;34.70;99.90;;;;;;4100194;28;20217;-94
2023/06/10 08:48:06;;;;;;;6.57;4.63;;;33.80;99.90;;;;;;4084358;29;20258;-94
2023/06/10 08:50:09;;;;;;;11.52;4.88;;;33.70;99.90;;;;;;4084655;29;20183;-95
2023/06/10 08:52:18;;;;;;;8.80;5.40;;;34.10;99.90;;;;;;4084424;29;20171;-93
2023/06/10 08:54:25;;;;;;;8.55;4.93;;;34.40;99.90;;;;;;4084206;29;20174;-93
2023/06/10 08:56:27;;;;;;;12.95;5.00;;;34.30;99.90;;;;;;4084057;29;20199;-94
2023/06/10 08:58:28;;;;;;;8.98;4.90;;;34.60;99.90;;;;;;4099898;28;20210;-94
2023/06/10 09:00:30;;;;;;;8.63;5.22;;;34.30;99.90;;;;;;4101492;28;20174;-93
2023/06/10 09:02:35;;;;;;;5.15;4.65;;;33.80;99.90;;;;;;4087563;29;20186;-96
2023/06/10 09:04:36;;;;;;;7.40;5.00;;;34.10;99.90;;;;;;4087685;29;20170;-93
2023/06/10 09:06:38;;;;;;;11.05;4.93;;;34.10;99.90;;;;;;4087453;29;20202;-94
2023/06/10 09:08:41;;;;;;;10.80;5.50;;;34.20;99.90;;;;;;4087085;29;20175;-92
2023/06/10 09:10:42;;;;;;;6.78;4.85;;;34.10;99.90;;;;;;4087634;29;20182;-95
2023/06/10 09:12:43;;;;;;;12.13;5.38;;;33.90;99.90;;;;;;4087518;29;20600;-96
2023/06/10 09:14:44;;;;;;;9.15;5.20;;;34.20;99.90;;;;;;4103852;28;20663;-96
2023/06/10 09:16:46;;;;;;;7.97;5.03;;;34.70;99.90;;;;;;4087483;29;20199;-92
2023/06/10 09:18:48;;;;;;;7.00;5.55;;;34.30;99.90;;;;;;4103547;28;20717;-92
2023/06/10 09:20:49;;;;;;;7.18;4.95;;;33.50;99.90;;;;;;4103108;28;20174;-94
2023/06/10 09:22:50;;;;;;;7.43;4.88;;;33.60;99.90;;;;;;4103101;28;20186;-92
2023/06/10 09:24:52;;;;;;;9.52;5.35;;;33.70;99.90;;;;;;4087208;29;20172;-95
2023/06/10 09:27:08;;;;;;;7.55;4.82;;;33.50;99.90;;;;;;4087328;29;20608;-95
2023/06/10 09:29:11;;;;;;;9.77;5.90;;;33.40;99.90;;;;;;4087139;29;20168;-95
2023/06/10 09:31:12;;;;;;;9.95;5.35;;;33.60;99.90;;;;;;4087146;29;20242;-94
2023/06/10 09:33:18;;;;;;;9.60;5.85;;;33.70;99.90;;;;;;4087179;29;20175;-94
2023/06/10 09:35:19;;;;;;;9.43;5.32;;;34.20;99.90;;;;;;4087325;29;20273;-96
2023/06/10 09:37:21;;;;;;;6.00;5.38;;;34.70;99.90;;;;;;4086924;29;20214;-94
2023/06/10 09:39:22;;;;;;;11.82;5.72;;;35.00;99.90;;;;;;4087609;29;20584;-95
2023/06/10 09:41:32;;;;;;;8.82;5.40;;;34.70;99.90;;;;;;4102669;28;20234;-95
2023/06/10 09:43:41;;;;;;;10.80;5.43;;;34.60;99.90;;;;;;4087562;29;20179;-93
2023/06/10 09:45:43;;;;;;;8.80;5.30;;;33.70;99.90;;;;;;4087316;29;20201;-94
2023/06/10 09:47:46;;;;;;;9.20;5.68;;;33.70;99.90;;;;;;4087419;29;20234;-95
2023/06/10 09:49:47;;;;;;;14.95;5.22;;;33.90;99.90;;;;;;4086717;29;20162;-94
2023/06/10 09:51:53;;;;;;;10.35;5.13;;;34.00;99.90;;;;;;4086514;29;20647;-95
2023/06/10 09:53:54;;;;;;;11.20;5.00;;;34.20;99.90;;;;;;4086800;29;20179;-92
2023/06/10 09:55:54;;;;;;;7.55;5.47;;;34.30;99.90;;;;;;4087178;29;20266;-94
2023/06/10 09:57:55;;;;;;;10.80;5.38;;;33.80;99.90;;;;;;4103049;28;20206;-94
2023/06/10 09:59:56;;;;;;;11.98;5.30;;;34.40;99.90;;;;;;4086768;29;20171;-95
2023/06/10 10:01:57;;;;;;;6.07;5.45;;;34.20;99.90;;;;;;4102562;28;20174;-94
2023/06/10 10:03:58;;;;;;;9.75;5.50;;;34.00;99.90;;;;;;4102897;28;20674;-94
2023/06/10 10:06:00;;;;;;;5.57;4.93;;;33.50;99.90;;;;;;4102577;28;20230;-94
2023/06/10 10:08:01;;;;;;;7.03;5.40;;;33.50;99.90;;;;;;4086813;29;20230;-93
2023/06/10 10:10:02;;;;;;;9.82;4.93;;;33.50;99.90;;;;;;4087018;29;20175;-95
2023/06/10 10:12:05;;;;;;;8.68;5.70;;;33.60;99.90;;;;;;4086708;29;20175;-96
2023/06/10 10:14:07;;;;;;;9.80;5.40;;;33.20;99.90;;;;;;4087181;29;20241;-95
2023/06/10 10:16:15;;;;;;;10.50;5.30;;;33.90;99.90;;;;;;4086196;29;20187;-96
2023/06/10 10:18:28;;;;;;;12.18;5.45;;;34.70;99.90;;;;;;4086105;29;20638;-95
2023/06/10 10:20:35;;;;;;;10.90;5.60;;;35.30;99.90;;;;;;4086343;29;20613;-93
2023/06/10 10:22:40;;;;;;;6.88;5.10;;;35.60;99.90;;;;;;4086935;29;20182;-95
2023/06/10 10:24:51;;;;;;;10.75;5.25;;;35.10;99.90;;;;;;4086913;29;20173;-94
2023/06/10 10:26:56;;;;;;;7.13;4.57;;;34.90;99.90;;;;;;4087513;29;20190;-95
2023/06/10 10:29:14;;;;;;;12.45;5.10;;;34.20;99.90;;;;;;4086460;29;20175;-96
2023/06/10 10:31:18;;;;;;;12.57;5.28;;;33.70;99.90;;;;;;4087081;29;20210;-94
2023/06/10 10:33:29;;;;;;;7.95;5.38;;;33.80;99.90;;;;;;4086771;29;20171;-95